Aviation Digital Data Service (ADDS)

Output produced by TAFs form (0435 UTC 03 September 2014)
found at http://aviationweather.gov/adds/tafs/
 
KELP 022329Z 0300/0324 VRB05KT P6SM SKC 
     FM030600 05004KT P6SM SKC